KAL1847 RKSS-RKPU
Flight info
| Callsign | KAL1847 |
|---|---|
| Flight time | 0h 42m |
| Altitude | 21000 |
| Route | OSPOT2U OSPOT Y782 TGU Y659 LAPAL LAPAL2C |
| Aircraft | B738/M-SDE2E3FGHIRWXY/LB1 |
Departure
| Time | 2026-05-05 00:07 |
|---|---|
| Airport | Gimpo International Airport (RKSS) |
Arrival
| Time | 2026-05-05 00:49 |
|---|---|
| Airport | Ulsan Airport (RKPU) |
| Time | Latitude | Longitude | Altitude | Speed | Heading |
|---|---|---|---|---|---|
| 2026-05-04 23:55 | 37.55660 | 126.80467 | 66 ft | 0 kts | 45° |
| 2026-05-04 23:55 | 37.55650 | 126.80454 | 66 ft | 4 kts | 45° |
| 2026-05-04 23:56 | 37.55631 | 126.80430 | 57 ft | 4 kts | 45° |
| 2026-05-04 23:56 | 37.55612 | 126.80406 | 66 ft | 4 kts | 45° |
| 2026-05-04 23:56 | 37.55597 | 126.80387 | 66 ft | 4 kts | 44° |
| 2026-05-04 23:56 | 37.55577 | 126.80365 | 66 ft | 4 kts | 33° |
| 2026-05-04 23:57 | 37.55554 | 126.80352 | 66 ft | 4 kts | 353° |
| 2026-05-04 23:57 | 37.55535 | 126.80366 | 66 ft | 4 kts | 315° |
| 2026-05-04 23:57 | 37.55525 | 126.80379 | 66 ft | 0 kts | 315° |
| 2026-05-04 23:59 | 37.55530 | 126.80373 | 59 ft | 3 kts | 315° |
| 2026-05-04 23:59 | 37.55535 | 126.80366 | 66 ft | 1 kts | 315° |
| 2026-05-05 00:00 | 37.55543 | 126.80356 | 66 ft | 4 kts | 315° |
| 2026-05-05 00:00 | 37.55558 | 126.80324 | 60 ft | 9 kts | 285° |
| 2026-05-05 00:00 | 37.55483 | 126.80196 | 60 ft | 17 kts | 223° |
| 2026-05-05 00:00 | 37.55487 | 126.80091 | 63 ft | 15 kts | 330° |
| 2026-05-05 00:01 | 37.55568 | 126.80008 | 61 ft | 15 kts | 316° |
| 2026-05-05 00:01 | 37.55639 | 126.79918 | 60 ft | 14 kts | 314° |
| 2026-05-05 00:01 | 37.55706 | 126.79832 | 59 ft | 13 kts | 315° |
| 2026-05-05 00:01 | 37.55771 | 126.79751 | 66 ft | 13 kts | 315° |
| 2026-05-05 00:02 | 37.55835 | 126.79673 | 58 ft | 13 kts | 316° |
| 2026-05-05 00:02 | 37.55910 | 126.79582 | 61 ft | 19 kts | 316° |
| 2026-05-05 00:02 | 37.56022 | 126.79440 | 61 ft | 25 kts | 315° |
| 2026-05-05 00:02 | 37.56143 | 126.79287 | 61 ft | 24 kts | 315° |
| 2026-05-05 00:03 | 37.56256 | 126.79146 | 64 ft | 23 kts | 315° |
| 2026-05-05 00:03 | 37.56366 | 126.79007 | 65 ft | 22 kts | 315° |
| 2026-05-05 00:03 | 37.56474 | 126.78872 | 61 ft | 21 kts | 315° |
| 2026-05-05 00:03 | 37.56578 | 126.78741 | 61 ft | 21 kts | 315° |
| 2026-05-05 00:04 | 37.56679 | 126.78614 | 64 ft | 20 kts | 314° |
| 2026-05-05 00:04 | 37.56776 | 126.78490 | 64 ft | 20 kts | 315° |
| 2026-05-05 00:04 | 37.56871 | 126.78372 | 57 ft | 18 kts | 315° |
| 2026-05-05 00:04 | 37.56884 | 126.78269 | 59 ft | 13 kts | 232° |
| 2026-05-05 00:05 | 37.56809 | 126.78191 | 61 ft | 15 kts | 191° |
| 2026-05-05 00:05 | 37.56728 | 126.78257 | 61 ft | 14 kts | 135° |
| 2026-05-05 00:05 | 37.56661 | 126.78340 | 61 ft | 14 kts | 135° |
| 2026-05-05 00:05 | 37.56650 | 126.78354 | 63 ft | 0 kts | 134° |
| 2026-05-05 00:06 | 37.56551 | 126.78480 | 63 ft | 59 kts | 135° |
| 2026-05-05 00:06 | 37.56058 | 126.79100 | 61 ft | 138 kts | 135° |
| 2026-05-05 00:06 | 37.55282 | 126.80077 | 487 ft | 169 kts | 135° |
| 2026-05-05 00:07 | 37.54409 | 126.81181 | 1343 ft | 180 kts | 138° |
| 2026-05-05 00:07 | 37.53441 | 126.82387 | 1866 ft | 212 kts | 138° |
| 2026-05-05 00:07 | 37.52329 | 126.83770 | 2294 ft | 232 kts | 138° |
| 2026-05-05 00:07 | 37.51117 | 126.85281 | 2729 ft | 255 kts | 138° |
| 2026-05-05 00:08 | 37.49762 | 126.86755 | 3605 ft | 258 kts | 154° |
| 2026-05-05 00:08 | 37.48083 | 126.87501 | 4703 ft | 256 kts | 166° |
| 2026-05-05 00:08 | 37.46354 | 126.88151 | 5655 ft | 263 kts | 165° |
| 2026-05-05 00:08 | 37.44599 | 126.88827 | 6566 ft | 270 kts | 165° |
| 2026-05-05 00:09 | 37.42786 | 126.89539 | 7470 ft | 274 kts | 165° |
| 2026-05-05 00:09 | 37.40956 | 126.90266 | 8434 ft | 278 kts | 165° |
| 2026-05-05 00:09 | 37.39103 | 126.91004 | 9357 ft | 282 kts | 164° |
| 2026-05-05 00:09 | 37.37221 | 126.91777 | 10262 ft | 287 kts | 160° |
| 2026-05-05 00:10 | 37.35403 | 126.93016 | 10658 ft | 312 kts | 148° |
| 2026-05-05 00:10 | 37.33542 | 126.94652 | 10866 ft | 339 kts | 146° |
| 2026-05-05 00:10 | 37.31570 | 126.96455 | 11278 ft | 356 kts | 145° |
| 2026-05-05 00:10 | 37.29537 | 126.98285 | 12016 ft | 362 kts | 146° |
| 2026-05-05 00:11 | 37.27493 | 127.00077 | 12893 ft | 362 kts | 146° |
| 2026-05-05 00:11 | 37.25418 | 127.01866 | 13849 ft | 362 kts | 147° |
| 2026-05-05 00:11 | 37.23323 | 127.03661 | 14576 ft | 366 kts | 147° |
| 2026-05-05 00:11 | 37.21175 | 127.05418 | 15239 ft | 372 kts | 148° |
| 2026-05-05 00:12 | 37.18946 | 127.07177 | 15287 ft | 382 kts | 148° |
| 2026-05-05 00:12 | 37.16703 | 127.08937 | 15016 ft | 377 kts | 148° |
| 2026-05-05 00:12 | 37.14501 | 127.10676 | 14706 ft | 371 kts | 148° |
| 2026-05-05 00:12 | 37.12333 | 127.12395 | 14399 ft | 367 kts | 148° |
| 2026-05-05 00:13 | 37.10170 | 127.14112 | 14036 ft | 367 kts | 148° |
| 2026-05-05 00:13 | 37.07998 | 127.15824 | 13401 ft | 370 kts | 149° |
| 2026-05-05 00:13 | 37.05813 | 127.17541 | 12766 ft | 370 kts | 149° |
| 2026-05-05 00:13 | 37.03637 | 127.19249 | 12132 ft | 368 kts | 149° |
| 2026-05-05 00:14 | 37.01500 | 127.20927 | 11503 ft | 365 kts | 149° |
| 2026-05-05 00:14 | 36.99348 | 127.22617 | 10894 ft | 363 kts | 149° |
| 2026-05-05 00:14 | 36.97211 | 127.24293 | 10337 ft | 361 kts | 149° |
| 2026-05-05 00:14 | 36.95116 | 127.25940 | 10103 ft | 351 kts | 149° |
| 2026-05-05 00:15 | 36.93057 | 127.27571 | 10192 ft | 354 kts | 149° |
| 2026-05-05 00:15 | 36.90964 | 127.29230 | 10930 ft | 357 kts | 148° |
| 2026-05-05 00:15 | 36.88868 | 127.30891 | 11947 ft | 355 kts | 148° |
| 2026-05-05 00:15 | 36.86778 | 127.32544 | 12848 ft | 357 kts | 148° |
| 2026-05-05 00:16 | 36.84664 | 127.34215 | 13710 ft | 360 kts | 148° |
| 2026-05-05 00:16 | 36.82632 | 127.36069 | 14470 ft | 364 kts | 140° |
| 2026-05-05 00:16 | 36.80821 | 127.38249 | 15178 ft | 369 kts | 135° |
| 2026-05-05 00:16 | 36.79024 | 127.40575 | 15890 ft | 374 kts | 134° |
| 2026-05-05 00:17 | 36.77207 | 127.42922 | 16586 ft | 378 kts | 135° |
| 2026-05-05 00:17 | 36.75339 | 127.45271 | 17281 ft | 383 kts | 135° |
| 2026-05-05 00:17 | 36.73433 | 127.47620 | 17973 ft | 387 kts | 136° |
| 2026-05-05 00:17 | 36.71498 | 127.49986 | 18654 ft | 390 kts | 136° |
| 2026-05-05 00:18 | 36.69550 | 127.52362 | 19240 ft | 394 kts | 136° |
| 2026-05-05 00:18 | 36.67580 | 127.54768 | 19822 ft | 398 kts | 136° |
| 2026-05-05 00:18 | 36.65619 | 127.57162 | 20386 ft | 402 kts | 136° |
| 2026-05-05 00:18 | 36.63600 | 127.59627 | 20947 ft | 407 kts | 136° |
| 2026-05-05 00:19 | 36.61570 | 127.62104 | 21151 ft | 413 kts | 136° |
| 2026-05-05 00:19 | 36.59493 | 127.64636 | 21166 ft | 422 kts | 136° |
| 2026-05-05 00:19 | 36.57382 | 127.67210 | 21166 ft | 424 kts | 136° |
| 2026-05-05 00:19 | 36.55285 | 127.69764 | 21154 ft | 422 kts | 136° |
| 2026-05-05 00:20 | 36.53183 | 127.72322 | 21161 ft | 420 kts | 136° |
| 2026-05-05 00:20 | 36.51119 | 127.74832 | 21164 ft | 420 kts | 136° |
| 2026-05-05 00:20 | 36.49025 | 127.77378 | 21167 ft | 420 kts | 136° |
| 2026-05-05 00:20 | 36.46936 | 127.79913 | 21168 ft | 420 kts | 136° |
| 2026-05-05 00:21 | 36.44844 | 127.82450 | 21166 ft | 421 kts | 136° |
| 2026-05-05 00:21 | 36.42748 | 127.84995 | 21166 ft | 421 kts | 136° |
| 2026-05-05 00:21 | 36.40653 | 127.87540 | 21169 ft | 421 kts | 136° |
| 2026-05-05 00:21 | 36.38556 | 127.90085 | 21165 ft | 421 kts | 136° |
| 2026-05-05 00:22 | 36.36460 | 127.92630 | 21163 ft | 422 kts | 136° |
| 2026-05-05 00:22 | 36.34364 | 127.95172 | 21167 ft | 422 kts | 136° |
| 2026-05-05 00:22 | 36.32288 | 127.97688 | 21165 ft | 422 kts | 136° |
| 2026-05-05 00:22 | 36.30186 | 128.00233 | 21166 ft | 422 kts | 137° |
| 2026-05-05 00:23 | 36.28091 | 128.02767 | 21166 ft | 422 kts | 137° |
| 2026-05-05 00:23 | 36.25984 | 128.05309 | 21165 ft | 421 kts | 137° |
| 2026-05-05 00:23 | 36.23884 | 128.07838 | 21171 ft | 421 kts | 137° |
| 2026-05-05 00:23 | 36.21783 | 128.10366 | 21170 ft | 421 kts | 137° |
| 2026-05-05 00:24 | 36.19683 | 128.12892 | 21163 ft | 421 kts | 137° |
| 2026-05-05 00:24 | 36.17581 | 128.15418 | 21166 ft | 421 kts | 137° |
| 2026-05-05 00:24 | 36.15475 | 128.17948 | 21166 ft | 421 kts | 137° |
| 2026-05-05 00:24 | 36.13367 | 128.20478 | 21157 ft | 421 kts | 137° |
| 2026-05-05 00:25 | 36.11266 | 128.22999 | 21168 ft | 421 kts | 137° |
| 2026-05-05 00:25 | 36.09166 | 128.25516 | 21161 ft | 421 kts | 137° |
| 2026-05-05 00:25 | 36.07095 | 128.27998 | 21144 ft | 407 kts | 137° |
| 2026-05-05 00:25 | 36.05101 | 128.30387 | 20757 ft | 399 kts | 137° |
| 2026-05-05 00:26 | 36.03125 | 128.32751 | 20279 ft | 394 kts | 137° |
| 2026-05-05 00:26 | 36.01161 | 128.35099 | 19775 ft | 388 kts | 137° |
| 2026-05-05 00:26 | 35.99225 | 128.37410 | 19270 ft | 384 kts | 137° |
| 2026-05-05 00:26 | 35.97332 | 128.39669 | 18766 ft | 381 kts | 137° |
| 2026-05-05 00:27 | 35.95439 | 128.41927 | 18227 ft | 377 kts | 137° |
| 2026-05-05 00:27 | 35.93561 | 128.44165 | 17663 ft | 374 kts | 137° |
| 2026-05-05 00:27 | 35.91696 | 128.46388 | 17131 ft | 370 kts | 137° |
| 2026-05-05 00:27 | 35.89858 | 128.48575 | 16633 ft | 366 kts | 137° |
| 2026-05-05 00:28 | 35.88033 | 128.50747 | 16127 ft | 362 kts | 137° |
| 2026-05-05 00:28 | 35.86229 | 128.52892 | 15620 ft | 359 kts | 137° |
| 2026-05-05 00:28 | 35.84434 | 128.55022 | 14998 ft | 359 kts | 137° |
| 2026-05-05 00:28 | 35.82790 | 128.57338 | 14456 ft | 360 kts | 122° |
| 2026-05-05 00:29 | 35.81910 | 128.60215 | 13977 ft | 360 kts | 103° |
| 2026-05-05 00:29 | 35.81789 | 128.63294 | 13455 ft | 361 kts | 85° |
| 2026-05-05 00:29 | 35.82279 | 128.66318 | 12965 ft | 358 kts | 79° |
| 2026-05-05 00:29 | 35.82868 | 128.69293 | 12456 ft | 356 kts | 78° |
| 2026-05-05 00:30 | 35.83466 | 128.72211 | 11973 ft | 354 kts | 78° |
| 2026-05-05 00:30 | 35.84060 | 128.75137 | 11485 ft | 351 kts | 78° |
| 2026-05-05 00:30 | 35.84641 | 128.78051 | 11008 ft | 349 kts | 78° |
| 2026-05-05 00:30 | 35.85207 | 128.80934 | 10767 ft | 340 kts | 78° |
| 2026-05-05 00:31 | 35.85749 | 128.83723 | 10605 ft | 329 kts | 78° |
| 2026-05-05 00:31 | 35.86271 | 128.86432 | 10469 ft | 319 kts | 78° |
| 2026-05-05 00:31 | 35.86774 | 128.89053 | 10326 ft | 310 kts | 78° |
| 2026-05-05 00:31 | 35.87263 | 128.91603 | 10190 ft | 300 kts | 79° |
| 2026-05-05 00:32 | 35.87735 | 128.94074 | 10066 ft | 292 kts | 79° |
| 2026-05-05 00:32 | 35.88194 | 128.96481 | 9859 ft | 287 kts | 79° |
| 2026-05-05 00:32 | 35.88642 | 128.98845 | 9563 ft | 286 kts | 79° |
| 2026-05-05 00:32 | 35.89103 | 129.01263 | 9252 ft | 286 kts | 78° |
| 2026-05-05 00:33 | 35.89550 | 129.03617 | 8947 ft | 285 kts | 78° |
| 2026-05-05 00:33 | 35.90000 | 129.05987 | 8654 ft | 284 kts | 78° |
| 2026-05-05 00:33 | 35.90449 | 129.08354 | 8358 ft | 283 kts | 78° |
| 2026-05-05 00:33 | 35.90897 | 129.10716 | 8063 ft | 282 kts | 78° |
| 2026-05-05 00:34 | 35.91345 | 129.13070 | 7773 ft | 282 kts | 78° |
| 2026-05-05 00:34 | 35.91792 | 129.15430 | 7475 ft | 283 kts | 78° |
| 2026-05-05 00:34 | 35.92033 | 129.17817 | 7162 ft | 282 kts | 98° |
| 2026-05-05 00:34 | 35.91367 | 129.20030 | 7021 ft | 272 kts | 127° |
| 2026-05-05 00:35 | 35.90057 | 129.21658 | 6981 ft | 267 kts | 148° |
| 2026-05-05 00:35 | 35.89001 | 129.22409 | 6991 ft | 264 kts | 154° |
| 2026-05-05 00:35 | 35.87353 | 129.23413 | 6990 ft | 264 kts | 156° |
| 2026-05-05 00:35 | 35.85688 | 129.24388 | 6975 ft | 266 kts | 156° |
| 2026-05-05 00:36 | 35.84021 | 129.25364 | 6978 ft | 265 kts | 156° |
| 2026-05-05 00:36 | 35.82356 | 129.26345 | 6987 ft | 265 kts | 156° |
| 2026-05-05 00:36 | 35.80685 | 129.27336 | 6980 ft | 265 kts | 156° |
| 2026-05-05 00:36 | 35.79024 | 129.28326 | 6978 ft | 265 kts | 156° |
| 2026-05-05 00:37 | 35.77381 | 129.29307 | 6989 ft | 265 kts | 155° |
| 2026-05-05 00:37 | 35.75720 | 129.30302 | 6972 ft | 266 kts | 155° |
| 2026-05-05 00:37 | 35.74059 | 129.31299 | 6979 ft | 264 kts | 155° |
| 2026-05-05 00:37 | 35.72402 | 129.32294 | 6995 ft | 265 kts | 155° |
| 2026-05-05 00:38 | 35.70741 | 129.33290 | 6979 ft | 266 kts | 155° |
| 2026-05-05 00:38 | 35.69076 | 129.34288 | 6985 ft | 266 kts | 155° |
| 2026-05-05 00:38 | 35.67408 | 129.35290 | 6993 ft | 266 kts | 155° |
| 2026-05-05 00:38 | 35.65743 | 129.36289 | 6990 ft | 266 kts | 156° |
| 2026-05-05 00:39 | 35.64076 | 129.37288 | 6991 ft | 266 kts | 156° |
| 2026-05-05 00:39 | 35.62415 | 129.38284 | 6991 ft | 266 kts | 156° |
| 2026-05-05 00:39 | 35.60755 | 129.39277 | 6975 ft | 265 kts | 156° |
| 2026-05-05 00:39 | 35.59098 | 129.40273 | 6990 ft | 265 kts | 153° |
| 2026-05-05 00:40 | 35.57724 | 129.41730 | 6898 ft | 270 kts | 126° |
| 2026-05-05 00:40 | 35.56908 | 129.43855 | 6544 ft | 278 kts | 112° |
| 2026-05-05 00:40 | 35.56196 | 129.46071 | 6160 ft | 279 kts | 113° |
| 2026-05-05 00:40 | 35.55479 | 129.48275 | 5747 ft | 276 kts | 114° |
| 2026-05-05 00:41 | 35.54716 | 129.50377 | 5379 ft | 267 kts | 126° |
| 2026-05-05 00:41 | 35.53388 | 129.51846 | 5046 ft | 252 kts | 157° |
| 2026-05-05 00:41 | 35.51975 | 129.52318 | 4968 ft | 229 kts | 176° |
| 2026-05-05 00:41 | 35.50877 | 129.52301 | 4846 ft | 214 kts | 192° |
| 2026-05-05 00:42 | 35.49501 | 129.51844 | 4692 ft | 198 kts | 204° |
| 2026-05-05 00:42 | 35.48296 | 129.51145 | 4603 ft | 185 kts | 207° |
| 2026-05-05 00:42 | 35.47187 | 129.50467 | 4513 ft | 172 kts | 207° |
| 2026-05-05 00:42 | 35.46147 | 129.49834 | 4309 ft | 166 kts | 207° |
| 2026-05-05 00:43 | 35.45087 | 129.49191 | 3958 ft | 169 kts | 207° |
| 2026-05-05 00:43 | 35.44153 | 129.48365 | 3716 ft | 165 kts | 235° |
| 2026-05-05 00:43 | 35.43787 | 129.47095 | 3571 ft | 160 kts | 262° |
| 2026-05-05 00:43 | 35.43709 | 129.45742 | 3429 ft | 160 kts | 262° |
| 2026-05-05 00:44 | 35.43625 | 129.44366 | 3287 ft | 164 kts | 262° |
| 2026-05-05 00:44 | 35.43544 | 129.42968 | 3138 ft | 165 kts | 262° |
| 2026-05-05 00:44 | 35.43464 | 129.41567 | 2963 ft | 164 kts | 262° |
| 2026-05-05 00:44 | 35.43385 | 129.40175 | 2815 ft | 164 kts | 262° |
| 2026-05-05 00:45 | 35.43380 | 129.38765 | 2644 ft | 168 kts | 281° |
| 2026-05-05 00:45 | 35.43919 | 129.37492 | 2502 ft | 172 kts | 308° |
| 2026-05-05 00:45 | 35.44880 | 129.36587 | 2354 ft | 178 kts | 333° |
| 2026-05-05 00:45 | 35.46090 | 129.36260 | 2149 ft | 180 kts | 358° |
| 2026-05-05 00:46 | 35.47332 | 129.36191 | 1987 ft | 178 kts | 354° |
| 2026-05-05 00:46 | 35.48543 | 129.36076 | 1823 ft | 169 kts | 355° |
| 2026-05-05 00:46 | 35.49654 | 129.35980 | 1664 ft | 158 kts | 355° |
| 2026-05-05 00:46 | 35.50729 | 129.35892 | 1550 ft | 154 kts | 355° |
| 2026-05-05 00:47 | 35.51813 | 129.35800 | 1374 ft | 158 kts | 355° |
| 2026-05-05 00:47 | 35.52913 | 129.35708 | 1151 ft | 157 kts | 356° |
| 2026-05-05 00:47 | 35.53999 | 129.35618 | 917 ft | 153 kts | 355° |
| 2026-05-05 00:47 | 35.55051 | 129.35531 | 746 ft | 152 kts | 355° |
| 2026-05-05 00:48 | 35.56099 | 129.35443 | 535 ft | 152 kts | 356° |
| 2026-05-05 00:48 | 35.57137 | 129.35357 | 336 ft | 147 kts | 356° |
| 2026-05-05 00:48 | 35.58153 | 129.35269 | 123 ft | 146 kts | 356° |
| 2026-05-05 00:48 | 35.59138 | 129.35189 | 42 ft | 128 kts | 356° |
| 2026-05-05 00:49 | 35.59802 | 129.35135 | 47 ft | 64 kts | 356° |
| 2026-05-05 00:49 | 35.60046 | 129.35115 | 53 ft | 19 kts | 356° |
| 2026-05-05 00:49 | 35.60175 | 129.35132 | 50 ft | 16 kts | 24° |
| 2026-05-05 00:49 | 35.60220 | 129.35107 | 51 ft | 8 kts | 241° |
| 2026-05-05 00:50 | 35.60166 | 129.35102 | 51 ft | 8 kts | 173° |
| 2026-05-05 00:50 | 35.60094 | 129.35110 | 51 ft | 13 kts | 176° |
| 2026-05-05 00:50 | 35.59980 | 129.35119 | 51 ft | 20 kts | 176° |
| 2026-05-05 00:50 | 35.59820 | 129.35133 | 47 ft | 26 kts | 176° |
| 2026-05-05 00:51 | 35.59644 | 129.35148 | 48 ft | 23 kts | 176° |
| 2026-05-05 00:51 | 35.59485 | 129.35161 | 45 ft | 23 kts | 176° |
| 2026-05-05 00:51 | 35.59333 | 129.35173 | 46 ft | 17 kts | 176° |
| 2026-05-05 00:51 | 35.59274 | 129.35224 | 33 ft | 11 kts | 109° |
| 2026-05-05 00:52 | 35.59275 | 129.35314 | 35 ft | 10 kts | 86° |
| 2026-05-05 00:52 | 35.59283 | 129.35400 | 35 ft | 10 kts | 74° |
| 2026-05-05 00:52 | 35.59296 | 129.35477 | 34 ft | 5 kts | 85° |
| 2026-05-05 00:52 | 35.59297 | 129.35492 | 34 ft | 0 kts | 86° |